Time;durP1;ratioP1;P1;durP2;ratioP2;P2;SDS_P1;SDS_P2;PMS_P1;PMS_P2;Temp;Humidity;BMP_temperature;BMP_pressure;BME280_temperature;BME280_humidity;BME280_pressure;Samples;Min_cycle;Max_cycle;Signal;HPM_P1;HPM_P2
2022/06/18 00:01:00;;;;;;;2.47;1.77;;;;;;;25.59;41.82;99942.81;4139836;28;20230;-72
2022/06/18 00:03:02;;;;;;;2.13;1.90;;;;;;;25.60;41.69;99938.19;4141663;28;20295;-72
2022/06/18 00:05:04;;;;;;;2.75;1.90;;;;;;;25.73;42.04;99945.94;4141068;28;20233;-72
2022/06/18 00:07:09;;;;;;;3.05;1.80;;;;;;;25.89;41.49;99935.22;4132694;28;20648;-72
2022/06/18 00:09:12;;;;;;;3.22;2.10;;;;;;;25.63;42.17;99936.81;4125694;28;20229;-72
2022/06/18 00:13:39;;;;;;;3.67;1.98;;;;;;;26.74;40.39;99951.81;4128605;28;20276;-73
2022/06/18 00:15:41;;;;;;;2.33;1.90;;;;;;;25.71;42.35;99960.88;4120555;28;20249;-71
2022/06/18 00:17:44;;;;;;;3.42;1.90;;;;;;;25.66;42.09;99941.78;4128449;28;20245;-70
2022/06/18 00:19:47;;;;;;;3.03;1.92;;;;;;;26.11;41.54;99938.72;4129175;28;20295;-73
2022/06/18 00:21:49;;;;;;;4.55;1.60;;;;;;;26.70;40.30;99943.31;4134355;28;20301;-72
2022/06/18 00:23:51;;;;;;;3.22;1.88;;;;;;;27.24;39.41;99966.88;4127006;28;20245;-72
2022/06/18 00:26:00;;;;;;;2.28;2.05;;;;;;;27.01;39.81;99984.47;4127068;28;20241;-72
2022/06/18 00:28:07;;;;;;;4.35;1.90;;;;;;;26.18;41.17;99984.03;4128966;28;20304;-73
2022/06/18 00:30:11;;;;;;;3.55;2.13;;;;;;;25.88;41.93;99988.88;4127808;28;20234;-71
2022/06/18 00:32:13;;;;;;;4.13;1.80;;;;;;;26.49;40.80;99963.34;4128952;28;20769;-71
2022/06/18 00:34:15;;;;;;;4.75;1.80;;;;;;;27.10;39.72;99971.19;4127131;28;20307;-73
2022/06/18 00:36:17;;;;;;;6.85;2.35;;;;;;;26.83;39.94;99977.50;4128018;28;20289;-73
2022/06/18 00:38:25;;;;;;;3.90;2.00;;;;;;;25.87;41.85;99978.25;4128527;28;20642;-72
2022/06/18 00:40:32;;;;;;;3.70;1.90;;;;;;;27.04;40.12;99974.91;4127506;28;20248;-70
2022/06/18 00:42:35;;;;;;;3.15;1.70;;;;;;;27.13;39.34;99984.28;4129271;28;20299;-71
2022/06/18 00:44:39;;;;;;;3.30;1.80;;;;;;;26.72;40.45;99992.16;4127167;28;20786;-70
2022/06/18 00:46:47;;;;;;;2.25;1.75;;;;;;;26.27;41.30;99994.22;4127071;28;20646;-71
2022/06/18 00:49:02;;;;;;;3.83;2.10;;;;;;;26.52;40.60;99980.03;4128322;28;20233;-70
2022/06/18 00:51:15;;;;;;;2.28;2.08;;;;;;;25.17;43.16;99972.41;4134343;28;20288;-70
2022/06/18 00:53:31;;;;;;;2.45;1.90;;;;;;;24.87;44.16;99965.50;4127988;28;20668;-73
2022/06/18 00:55:42;;;;;;;3.80;2.17;;;;;;;26.03;42.11;99963.75;4128212;28;20363;-72
2022/06/18 00:57:46;;;;;;;2.88;2.20;;;;;;;25.79;42.12;99977.59;4128383;28;20288;-70
2022/06/18 01:00:00;;;;;;;4.43;1.92;;;;;;;25.27;42.92;99964.41;4128644;28;20288;-71
2022/06/18 01:02:03;;;;;;;2.50;2.20;;;;;;;26.46;40.58;99961.13;4127846;28;20284;-72
2022/06/18 01:04:28;;;;;;;2.40;1.90;;;;;;;26.21;40.51;99980.78;4127454;28;20377;-72
2022/06/18 01:06:33;;;;;;;3.88;2.00;;;;;;;25.95;40.64;99966.91;4126865;28;20695;-73
2022/06/18 01:08:34;;;;;;;3.42;2.00;;;;;;;26.18;40.90;99979.38;4128197;28;20226;-72
2022/06/18 01:10:41;;;;;;;3.17;2.10;;;;;;;25.84;41.45;99965.13;4128138;28;20687;-72
2022/06/18 01:12:42;;;;;;;2.92;1.98;;;;;;;26.31;40.32;99964.53;4136337;28;20280;-72
2022/06/18 01:14:49;;;;;;;4.53;2.55;;;;;;;26.20;40.91;99973.69;4127445;28;20243;-73
2022/06/18 01:16:54;;;;;;;3.13;2.03;;;;;;;25.35;42.56;99963.97;4130043;28;20237;-71
2022/06/18 01:18:56;;;;;;;2.78;2.38;;;;;;;25.44;42.19;99969.00;4128139;28;20715;-71
2022/06/18 01:21:05;;;;;;;2.63;2.17;;;;;;;25.29;43.01;99939.66;4133028;28;20296;-71
2022/06/18 01:23:09;;;;;;;2.75;2.15;;;;;;;24.87;43.72;99946.44;4127552;28;20638;-72
2022/06/18 01:25:11;;;;;;;4.20;2.30;;;;;;;24.84;43.77;99936.06;4127491;28;20292;-71
2022/06/18 01:27:13;;;;;;;5.57;2.20;;;;;;;24.41;44.34;99926.66;4127267;28;21042;-70
2022/06/18 01:29:15;;;;;;;3.58;2.30;;;;;;;24.55;43.96;99921.72;4128097;28;20236;-70
2022/06/18 01:31:17;;;;;;;3.08;1.90;;;;;;;24.55;43.80;99917.13;4127743;28;20238;-70
2022/06/18 01:33:19;;;;;;;6.70;2.33;;;;;;;25.08;42.94;99911.38;4126044;28;20242;-70
2022/06/18 01:35:22;;;;;;;3.10;2.13;;;;;;;24.40;44.22;99925.03;4125786;28;20257;-70
2022/06/18 01:37:23;;;;;;;2.80;2.20;;;;;;;24.11;44.66;99914.19;4126587;28;20226;-71
2022/06/18 01:39:29;;;;;;;4.30;2.22;;;;;;;24.34;44.27;99907.81;4127501;28;20575;-70
2022/06/18 01:41:49;;;;;;;3.17;2.13;;;;;;;25.00;43.18;99915.34;4127136;28;20238;-70
2022/06/18 01:43:56;;;;;;;4.70;1.88;;;;;;;25.01;43.00;99920.53;4126622;28;20307;-69
2022/06/18 01:46:01;;;;;;;4.70;2.15;;;;;;;25.60;42.15;99908.22;4127088;28;20241;-70
2022/06/18 01:48:14;;;;;;;3.58;2.10;;;;;;;25.90;41.62;99931.41;4127773;28;20236;-71
2022/06/18 01:50:21;;;;;;;5.93;2.10;;;;;;;25.12;42.93;99935.13;4126686;28;20234;-70
2022/06/18 01:52:29;;;;;;;3.75;2.10;;;;;;;25.16;43.07;99922.63;4130075;28;20327;-69
2022/06/18 01:54:54;;;;;;;5.18;2.30;;;;;;;24.57;44.18;99923.13;4126568;28;20248;-72
2022/06/18 01:57:02;;;;;;;3.88;2.20;;;;;;;23.86;45.69;99914.56;4127015;28;20234;-71
2022/06/18 01:59:24;;;;;;;4.55;2.15;;;;;;;23.72;45.77;99900.44;4126938;28;20264;-71
2022/06/18 02:01:34;;;;;;;3.63;2.05;;;;;;;24.04;45.13;99892.63;4126048;28;21015;-71
2022/06/18 02:03:36;;;;;;;5.90;2.30;;;;;;;24.24;44.64;99884.00;4127630;28;20316;-72
2022/06/18 02:05:38;;;;;;;2.70;1.80;;;;;;;24.11;45.06;99884.31;4118763;28;20292;-71
2022/06/18 02:07:43;;;;;;;3.08;1.90;;;;;;;24.29;44.65;99891.41;4135071;28;20257;-71
2022/06/18 02:09:47;;;;;;;3.00;1.90;;;;;;;24.77;44.13;99879.13;4143454;28;20229;-70
2022/06/18 02:11:49;;;;;;;2.90;2.13;;;;;;;24.98;43.27;99895.72;4143418;28;20292;-70
2022/06/18 02:13:58;;;;;;;3.08;2.10;;;;;;;25.08;43.51;99890.41;4133056;28;20272;-71
2022/06/18 02:16:02;;;;;;;4.13;2.10;;;;;;;25.36;42.68;99913.13;4125220;28;20304;-71
2022/06/18 02:18:07;;;;;;;2.85;2.03;;;;;;;24.42;44.74;99912.81;4126462;28;20233;-70
2022/06/18 02:20:20;;;;;;;3.17;2.40;;;;;;;25.19;42.77;99907.72;4128867;28;20338;-70
2022/06/18 02:22:29;;;;;;;3.97;2.58;;;;;;;24.94;43.36;99917.19;4129081;28;20308;-72
2022/06/18 02:24:30;;;;;;;2.80;2.30;;;;;;;25.39;42.79;99905.28;4125525;28;20268;-70
2022/06/18 02:26:35;;;;;;;3.53;2.60;;;;;;;24.90;44.21;99920.63;4126504;28;20238;-71
2022/06/18 02:28:41;;;;;;;2.55;2.35;;;;;;;25.26;43.59;99913.78;4126396;28;20288;-71
2022/06/18 02:30:43;;;;;;;2.53;2.30;;;;;;;25.36;43.58;99911.22;4119273;28;20237;-71
2022/06/18 02:32:54;;;;;;;5.30;2.67;;;;;;;25.40;43.31;99906.91;4126373;28;20244;-70
2022/06/18 02:34:56;;;;;;;4.07;2.53;;;;;;;25.03;44.23;99912.13;4126262;28;20288;-71
2022/06/18 02:37:01;;;;;;;4.40;2.88;;;;;;;23.95;46.36;99899.50;4129742;28;20400;-70
2022/06/18 02:39:26;;;;;;;4.35;2.63;;;;;;;23.93;46.54;99880.75;4142518;28;20724;-68
2022/06/18 02:41:27;;;;;;;3.90;2.60;;;;;;;24.99;44.94;99879.16;4142379;28;20229;-70
2022/06/18 02:43:29;;;;;;;4.80;2.72;;;;;;;24.98;44.81;99877.50;4142420;28;20233;-70
2022/06/18 02:45:32;;;;;;;7.13;2.70;;;;;;;23.54;47.72;99885.97;4141945;28;20287;-67
2022/06/18 02:47:34;;;;;;;6.25;2.70;;;;;;;23.60;47.46;99884.22;4142185;28;20233;-68
2022/06/18 02:49:42;;;;;;;2.78;2.55;;;;;;;23.31;48.12;99892.28;4130649;28;20261;-68
2022/06/18 02:51:45;;;;;;;3.92;3.03;;;;;;;24.50;45.69;99873.56;4131528;28;20237;-68
2022/06/18 02:53:46;;;;;;;4.65;2.60;;;;;;;24.51;45.58;99894.22;4125629;28;20242;-68
2022/06/18 02:55:52;;;;;;;2.80;2.55;;;;;;;24.75;45.00;99896.72;4126418;28;20650;-68
2022/06/18 02:58:20;;;;;;;5.30;3.15;;;;;;;24.44;45.58;99909.88;4126890;28;20295;-68
2022/06/18 03:00:21;;;;;;;3.92;2.78;;;;;;;24.60;45.36;99900.88;4126603;28;20773;-67
2022/06/18 03:02:23;;;;;;;4.80;2.97;;;;;;;25.41;44.04;99899.59;4125813;28;20280;-66
2022/06/18 03:04:25;;;;;;;4.20;2.75;;;;;;;24.97;45.03;99913.97;4125581;28;20234;-71
2022/06/18 03:06:29;;;;;;;3.65;2.67;;;;;;;25.03;44.94;99920.28;4125372;28;20265;-67
2022/06/18 03:08:31;;;;;;;5.22;3.00;;;;;;;24.69;45.36;99929.28;4141790;28;20663;-67
2022/06/18 03:12:54;;;;;;;5.47;3.42;;;;;;;23.44;48.04;99923.75;4133242;28;20264;-70
2022/06/18 03:14:55;;;;;;;4.38;2.67;;;;;;;24.64;46.14;99899.31;4127639;28;20237;-71
2022/06/18 03:16:57;;;;;;;8.57;2.72;;;;;;;25.20;44.53;99906.63;4126201;28;20237;-71
2022/06/18 03:19:00;;;;;;;3.88;3.10;;;;;;;23.34;48.07;99920.84;4124805;28;20240;-71
2022/06/18 03:21:15;;;;;;;5.32;3.30;;;;;;;22.95;48.71;99909.72;4132498;28;20259;-71
2022/06/18 03:23:18;;;;;;;3.53;3.22;;;;;;;23.31;47.70;99911.28;4125183;28;20225;-67
2022/06/18 03:25:19;;;;;;;4.63;2.72;;;;;;;23.62;47.51;99892.94;4125992;28;20668;-68
2022/06/18 03:27:21;;;;;;;6.32;2.75;;;;;;;24.01;46.61;99892.25;4126230;28;20854;-68
2022/06/18 03:29:23;;;;;;;4.78;2.53;;;;;;;22.79;48.48;99916.63;4125975;28;20230;-70
2022/06/18 03:31:25;;;;;;;4.30;2.90;;;;;;;23.85;46.97;99886.56;4125323;28;20269;-68
2022/06/18 03:33:27;;;;;;;5.90;3.00;;;;;;;24.33;46.19;99886.31;4125077;28;20245;-68
2022/06/18 03:35:28;;;;;;;3.60;2.55;;;;;;;24.14;46.24;99905.53;4125632;28;20232;-67
2022/06/18 03:37:30;;;;;;;5.00;2.78;;;;;;;23.66;47.36;99915.81;4125808;28;20276;-67
2022/06/18 03:39:32;;;;;;;3.65;2.65;;;;;;;23.70;47.13;99918.88;4125295;28;20229;-68
2022/06/18 03:41:33;;;;;;;4.60;2.70;;;;;;;23.46;47.55;99920.81;4126425;28;20854;-68
2022/06/18 03:43:35;;;;;;;5.65;3.28;;;;;;;23.24;48.33;99915.22;4125998;28;20234;-70
2022/06/18 03:45:42;;;;;;;5.05;2.70;;;;;;;24.32;45.80;99896.38;4143139;28;20252;-70
2022/06/18 03:47:44;;;;;;;3.90;2.53;;;;;;;23.85;46.66;99924.59;4121962;28;20245;-70
2022/06/18 03:49:47;;;;;;;3.58;2.53;;;;;;;23.76;47.05;99931.47;4129318;28;20586;-69
2022/06/18 03:51:48;;;;;;;2.75;2.45;;;;;;;23.26;47.73;99945.63;4134471;28;20718;-69
2022/06/18 03:53:50;;;;;;;5.47;2.88;;;;;;;23.20;48.04;99936.56;4128479;28;20292;-70
2022/06/18 03:55:52;;;;;;;4.70;2.60;;;;;;;23.48;47.64;99921.41;4128404;28;20238;-67
2022/06/18 03:57:54;;;;;;;2.40;2.20;;;;;;;23.78;46.76;99928.53;4128835;28;20238;-67
2022/06/18 03:59:55;;;;;;;6.55;2.70;;;;;;;23.79;46.76;99935.59;4129078;28;20237;-70
2022/06/18 04:01:57;;;;;;;6.35;2.90;;;;;;;23.98;46.02;99947.91;4128007;28;20261;-71
2022/06/18 04:03:59;;;;;;;3.28;2.38;;;;;;;24.08;46.10;99936.41;4128154;28;20237;-67
2022/06/18 04:06:01;;;;;;;3.97;2.30;;;;;;;23.79;46.57;99939.16;4128374;28;20318;-68
2022/06/18 04:08:03;;;;;;;3.67;2.75;;;;;;;24.02;46.00;99946.34;4140267;28;20233;-67
2022/06/18 04:10:06;;;;;;;4.90;2.22;;;;;;;24.39;45.46;99939.69;4145061;28;20229;-67
2022/06/18 04:12:09;;;;;;;2.67;2.45;;;;;;;24.16;45.69;99946.88;4140922;28;20967;-67
2022/06/18 04:14:11;;;;;;;3.75;2.67;;;;;;;23.69;46.63;99938.94;4128092;28;20234;-70
2022/06/18 04:16:13;;;;;;;3.28;2.42;;;;;;;24.41;45.57;99942.97;4128227;28;20238;-67
2022/06/18 04:18:15;;;;;;;3.85;2.85;;;;;;;23.54;46.84;99956.53;4128833;28;20310;-67
2022/06/18 04:20:22;;;;;;;6.38;3.08;;;;;;;23.44;47.56;99947.38;4130060;28;20233;-68
2022/06/18 04:22:24;;;;;;;3.53;2.95;;;;;;;24.03;46.34;99944.47;4130340;28;20295;-66
2022/06/18 04:24:25;;;;;;;3.58;2.80;;;;;;;24.63;45.36;99938.44;4143343;28;20663;-67
2022/06/18 04:26:27;;;;;;;3.65;2.60;;;;;;;23.90;46.36;99957.25;4143996;28;20233;-67
2022/06/18 04:28:29;;;;;;;6.28;3.05;;;;;;;24.84;44.86;99949.66;4137859;28;20234;-67
2022/06/18 04:30:33;;;;;;;4.25;3.42;;;;;;;24.99;44.35;99955.31;4143914;28;20229;-67
2022/06/18 04:32:36;;;;;;;4.38;2.83;;;;;;;25.13;44.14;99954.97;4144502;28;20236;-67
2022/06/18 04:34:38;;;;;;;3.78;3.03;;;;;;;25.09;44.23;99959.25;4144111;28;20245;-71
2022/06/18 04:36:41;;;;;;;6.90;3.65;;;;;;;24.74;44.87;99965.81;4144413;28;20368;-71
2022/06/18 04:38:43;;;;;;;3.95;3.47;;;;;;;23.90;46.22;99965.41;4144089;28;20241;-71
2022/06/18 04:40:45;;;;;;;4.53;3.30;;;;;;;24.63;44.90;99959.34;4145215;28;20291;-70
2022/06/18 04:43:05;;;;;;;5.47;3.50;;;;;;;25.17;44.00;99958.81;4143175;28;20622;-70
2022/06/18 04:45:07;;;;;;;5.10;3.20;;;;;;;24.60;45.12;99968.84;4143448;28;20292;-67
2022/06/18 04:47:09;;;;;;;4.47;3.30;;;;;;;25.17;44.00;99962.38;4144756;28;20267;-68
2022/06/18 04:49:11;;;;;;;3.50;2.90;;;;;;;25.21;44.31;99962.69;4135339;28;20320;-66
2022/06/18 04:51:13;;;;;;;5.93;2.58;;;;;;;24.97;44.78;99970.22;4134312;28;20269;-67
2022/06/18 04:53:15;;;;;;;3.90;3.05;;;;;;;25.16;44.28;99963.44;4128356;28;20866;-67
2022/06/18 04:55:17;;;;;;;5.18;3.00;;;;;;;23.79;46.70;99979.03;4126583;28;20280;-67
2022/06/18 04:57:20;;;;;;;4.30;3.28;;;;;;;22.87;48.19;99966.97;4128919;28;20234;-68
2022/06/18 04:59:22;;;;;;;3.30;2.92;;;;;;;24.10;46.28;99943.22;4128087;28;20249;-67
2022/06/18 05:01:28;;;;;;;6.82;3.00;;;;;;;24.42;45.75;99942.72;4127644;28;20910;-67
2022/06/18 05:03:30;;;;;;;6.78;3.00;;;;;;;24.92;45.11;99943.81;4127966;28;20233;-67
2022/06/18 05:05:33;;;;;;;4.00;2.92;;;;;;;24.98;44.84;99952.84;4126954;28;20304;-67
2022/06/18 05:07:34;;;;;;;3.30;3.00;;;;;;;25.26;44.94;99948.34;4136721;28;21004;-67
2022/06/18 05:09:36;;;;;;;3.38;2.80;;;;;;;22.97;48.41;99967.25;4146958;28;20934;-68
2022/06/18 05:11:38;;;;;;;3.38;3.08;;;;;;;23.50;48.24;99939.09;4143593;28;20234;-67
2022/06/18 05:13:40;;;;;;;5.35;3.42;;;;;;;23.87;47.70;99933.34;4127774;28;20304;-67
2022/06/18 05:15:42;;;;;;;4.80;3.47;;;;;;;22.95;49.23;99937.66;4127211;28;20237;-67
2022/06/18 05:17:46;;;;;;;3.63;3.00;;;;;;;22.87;49.59;99927.13;4127435;28;20233;-67
2022/06/18 05:19:48;;;;;;;5.88;3.35;;;;;;;23.78;48.00;99917.66;4127699;28;20244;-67
2022/06/18 05:21:50;;;;;;;5.85;3.22;;;;;;;24.40;47.13;99920.41;4133567;28;20238;-67
2022/06/18 05:23:52;;;;;;;4.05;3.08;;;;;;;23.67;48.61;99927.50;4127251;28;20864;-67
2022/06/18 05:25:58;;;;;;;3.63;3.20;;;;;;;22.88;50.34;99942.34;4126387;28;20241;-68
2022/06/18 05:28:00;;;;;;;4.60;3.20;;;;;;;24.02;48.36;99911.03;4127909;28;20230;-67
2022/06/18 05:30:04;;;;;;;4.22;3.22;;;;;;;24.82;46.81;99928.16;4126380;28;20230;-68
2022/06/18 05:32:06;;;;;;;4.22;3.38;;;;;;;24.03;48.28;99936.31;4127797;28;20226;-68
2022/06/18 05:34:08;;;;;;;4.90;3.03;;;;;;;25.09;46.16;99934.75;4126883;28;20845;-67
2022/06/18 05:36:19;;;;;;;5.30;3.33;;;;;;;23.51;49.25;99946.16;4126839;28;20234;-69
2022/06/18 05:38:23;;;;;;;5.43;3.30;;;;;;;23.99;48.44;99929.72;4128386;28;20300;-67
2022/06/18 05:40:24;;;;;;;5.57;3.58;;;;;;;24.07;48.59;99921.19;4126751;28;20226;-67
2022/06/18 05:42:26;;;;;;;9.00;3.42;;;;;;;24.64;47.63;99942.00;4128359;28;20230;-68
2022/06/18 05:44:28;;;;;;;4.70;3.35;;;;;;;23.66;49.38;99940.25;4141756;28;20229;-68
2022/06/18 05:46:29;;;;;;;4.72;3.42;;;;;;;24.32;48.10;99926.25;4142454;28;20255;-68
2022/06/18 05:48:31;;;;;;;4.75;3.40;;;;;;;24.26;48.30;99930.78;4140018;28;20234;-68
2022/06/18 05:50:33;;;;;;;5.22;3.22;;;;;;;23.94;48.92;99936.72;4132205;28;20240;-68
2022/06/18 05:52:34;;;;;;;5.03;3.63;;;;;;;25.10;46.41;99917.38;4143158;28;20319;-68
2022/06/18 05:54:36;;;;;;;4.93;3.30;;;;;;;25.44;45.64;99925.44;4143075;28;20257;-67
2022/06/18 05:56:38;;;;;;;4.00;2.97;;;;;;;24.15;47.42;99934.34;4143377;28;20792;-67
2022/06/18 05:58:40;;;;;;;4.05;3.40;;;;;;;24.98;46.34;99915.59;4142543;28;20284;-68
2022/06/18 06:00:41;;;;;;;4.88;3.10;;;;;;;24.64;46.23;99936.56;4144125;28;20623;-67
2022/06/18 06:02:43;;;;;;;4.45;3.00;;;;;;;24.83;46.01;99918.09;4143270;28;20241;-67
2022/06/18 06:04:45;;;;;;;5.13;2.97;;;;;;;25.78;44.57;99924.22;4142135;28;20241;-67
2022/06/18 06:06:46;;;;;;;3.83;3.25;;;;;;;25.85;44.53;99928.66;4136598;28;20240;-67
2022/06/18 06:08:48;;;;;;;3.10;2.80;;;;;;;25.72;44.77;99933.41;4125251;28;20347;-67
2022/06/18 06:13:11;;;;;;;3.30;3.00;;;;;;;25.29;45.62;99932.34;4125589;28;20238;-68
2022/06/18 06:15:12;;;;;;;5.18;3.22;;;;;;;24.83;46.49;99929.81;4125455;28;20863;-69
2022/06/18 06:17:19;;;;;;;5.47;3.05;;;;;;;24.65;46.54;99933.59;4127596;28;20365;-70
2022/06/18 06:19:21;;;;;;;3.65;3.08;;;;;;;25.41;45.00;99919.44;4126384;28;20228;-66
2022/06/18 06:21:23;;;;;;;6.18;2.85;;;;;;;24.82;47.13;99921.91;4131674;28;20230;-68
2022/06/18 06:23:24;;;;;;;3.75;3.25;;;;;;;24.67;46.50;99920.56;4127162;28;20229;-68
2022/06/18 06:25:26;;;;;;;3.45;2.92;;;;;;;24.14;47.47;99924.56;4126265;28;20718;-67
2022/06/18 06:27:28;;;;;;;7.07;3.53;;;;;;;25.02;46.06;99913.19;4126677;28;20233;-67
2022/06/18 06:29:30;;;;;;;7.70;3.70;;;;;;;24.92;45.50;99913.88;4126569;28;20280;-68
2022/06/18 06:31:32;;;;;;;6.60;3.10;;;;;;;25.54;45.30;99910.06;4126953;28;20772;-67
2022/06/18 06:33:33;;;;;;;7.30;3.47;;;;;;;25.32;45.57;99914.66;4126247;28;20233;-67
2022/06/18 06:35:36;;;;;;;3.95;2.97;;;;;;;25.04;46.15;99930.91;4126667;28;20229;-68
2022/06/18 06:37:38;;;;;;;3.58;3.28;;;;;;;25.15;46.06;99920.16;4118685;28;20240;-67
2022/06/18 06:39:40;;;;;;;4.50;3.40;;;;;;;25.75;44.81;99924.72;4125608;28;20998;-67
2022/06/18 06:41:41;;;;;;;5.10;3.55;;;;;;;25.04;46.21;99924.66;4127050;28;20318;-67
2022/06/18 06:43:43;;;;;;;5.50;3.28;;;;;;;25.74;45.43;99914.09;4126040;28;20292;-68
2022/06/18 06:45:45;;;;;;;8.77;3.50;;;;;;;25.72;44.96;99917.06;4125451;28;20237;-67
2022/06/18 06:47:48;;;;;;;6.35;3.22;;;;;;;25.84;45.76;99925.09;4127481;28;20822;-67
2022/06/18 06:49:50;;;;;;;3.65;3.00;;;;;;;26.56;44.15;99911.34;4125946;28;20677;-68
2022/06/18 06:51:53;;;;;;;5.68;2.80;;;;;;;25.79;45.57;99925.84;4132181;28;20237;-67
2022/06/18 06:53:55;;;;;;;4.00;3.10;;;;;;;26.50;43.46;99915.88;4126938;28;20287;-67
2022/06/18 06:58:18;;;;;;;5.10;3.15;;;;;;;25.92;44.90;99942.88;4126644;28;20224;-68
2022/06/18 07:00:20;;;;;;;5.53;3.10;;;;;;;26.57;43.65;99924.72;4126850;28;20230;-68
2022/06/18 07:02:22;;;;;;;3.55;2.80;;;;;;;27.22;42.77;99930.03;4126173;28;20698;-68
2022/06/18 07:04:24;;;;;;;4.35;2.75;;;;;;;26.95;43.35;99935.59;4127947;28;20226;-66
2022/06/18 07:06:26;;;;;;;3.42;2.80;;;;;;;26.84;43.57;99930.06;4125767;28;20773;-67
2022/06/18 07:08:28;;;;;;;13.00;3.33;;;;;;;26.50;43.77;99935.84;4141120;28;20225;-68
2022/06/18 07:10:29;;;;;;;4.88;3.05;;;;;;;26.72;42.95;99929.41;4142623;28;20694;-68
2022/06/18 07:12:31;;;;;;;5.00;2.83;;;;;;;27.61;41.46;99925.00;4134594;28;20753;-68
2022/06/18 07:14:33;;;;;;;5.03;3.20;;;;;;;27.59;42.20;99929.88;4125555;28;20237;-72
2022/06/18 07:16:34;;;;;;;7.88;3.00;;;;;;;27.54;41.46;99937.25;4126416;28;20230;-69
2022/06/18 07:18:37;;;;;;;5.55;2.78;;;;;;;26.64;41.77;99940.81;4126362;28;20289;-67
2022/06/18 07:20:38;;;;;;;3.20;2.58;;;;;;;27.49;41.86;99929.03;4135268;28;20241;-67
2022/06/18 07:22:40;;;;;;;4.05;3.00;;;;;;;27.23;41.82;99937.13;4130087;28;20268;-67
2022/06/18 07:24:42;;;;;;;4.72;3.15;;;;;;;27.54;41.64;99932.59;4129452;28;20241;-66
2022/06/18 07:26:44;;;;;;;3.63;2.60;;;;;;;27.47;41.74;99929.31;4129642;28;20288;-67
2022/06/18 07:28:46;;;;;;;5.47;3.00;;;;;;;27.05;42.92;99928.25;4129517;28;20292;-68
2022/06/18 07:30:48;;;;;;;3.92;2.90;;;;;;;27.17;41.97;99938.19;4128813;28;20234;-68
2022/06/18 07:32:50;;;;;;;2.88;2.40;;;;;;;27.80;41.82;99928.06;4129372;28;20625;-67
2022/06/18 07:34:53;;;;;;;4.80;2.83;;;;;;;27.78;41.62;99923.94;4129296;28;20245;-70
2022/06/18 07:36:55;;;;;;;3.20;2.90;;;;;;;28.06;40.97;99919.09;4128570;28;20309;-69
2022/06/18 07:38:57;;;;;;;4.72;3.08;;;;;;;28.15;40.45;99912.81;4129698;28;21055;-69
2022/06/18 07:40:59;;;;;;;3.58;2.80;;;;;;;28.20;40.40;99928.41;4129321;28;20236;-69
2022/06/18 07:43:03;;;;;;;6.03;2.72;;;;;;;28.80;39.61;99919.63;4128381;28;20316;-69
2022/06/18 07:45:13;;;;;;;3.63;2.50;;;;;;;27.84;40.06;99931.06;4128452;28;20237;-69
2022/06/18 07:47:18;;;;;;;4.60;2.78;;;;;;;28.24;39.92;99920.47;4128840;28;20265;-69
2022/06/18 07:49:21;;;;;;;4.68;2.70;;;;;;;28.12;40.39;99917.97;4128479;28;20240;-69
2022/06/18 07:51:25;;;;;;;4.32;2.78;;;;;;;28.26;40.63;99923.75;4134824;28;20256;-69
2022/06/18 07:53:27;;;;;;;2.95;2.22;;;;;;;28.11;40.90;99906.25;4128285;28;20268;-69
2022/06/18 07:55:29;;;;;;;3.10;2.42;;;;;;;28.44;39.81;99909.53;4128518;28;20245;-68
2022/06/18 07:57:30;;;;;;;4.10;2.65;;;;;;;28.55;39.68;99908.44;4129011;28;20272;-69
2022/06/18 07:59:32;;;;;;;3.40;2.60;;;;;;;28.50;39.90;99911.16;4129029;28;20230;-69
2022/06/18 08:01:34;;;;;;;6.15;2.85;;;;;;;29.00;38.85;99913.28;4128509;28;20221;-68
2022/06/18 08:03:35;;;;;;;5.32;2.72;;;;;;;28.57;39.47;99910.88;4128980;28;20230;-68
2022/06/18 08:05:38;;;;;;;5.53;3.13;;;;;;;28.22;40.02;99906.28;4127971;28;20229;-68
2022/06/18 08:07:40;;;;;;;2.83;2.50;;;;;;;28.57;39.97;99901.88;4138095;28;20740;-69
2022/06/18 08:09:42;;;;;;;5.05;2.60;;;;;;;29.15;38.78;99895.97;4144951;28;20730;-69
2022/06/18 08:11:43;;;;;;;2.67;2.22;;;;;;;28.50;39.51;99892.03;4143774;28;20245;-69
2022/06/18 08:13:46;;;;;;;4.47;2.80;;;;;;;29.37;38.56;99899.22;4127649;28;20286;-68
2022/06/18 08:15:49;;;;;;;4.15;2.60;;;;;;;29.04;39.85;99892.47;4127117;28;20292;-68
2022/06/18 08:17:50;;;;;;;7.13;2.70;;;;;;;28.89;39.65;99891.41;4138583;28;20237;-68
2022/06/18 08:20:12;;;;;;;5.40;2.80;;;;;;;28.96;39.91;99869.22;4144378;28;20229;-68
2022/06/18 08:22:14;;;;;;;2.97;2.67;;;;;;;29.05;39.99;99866.72;4131523;28;20230;-70
2022/06/18 08:24:20;;;;;;;6.15;2.72;;;;;;;28.89;41.51;99866.78;4128407;28;20261;-68
2022/06/18 08:26:22;;;;;;;3.58;2.50;;;;;;;27.92;42.04;99861.41;4128686;28;20273;-68
2022/06/18 08:28:24;;;;;;;5.70;2.70;;;;;;;28.22;41.08;99846.94;4127845;28;20622;-68
2022/06/18 08:30:26;;;;;;;4.55;2.50;;;;;;;28.35;41.49;99845.56;4126181;28;20226;-68
2022/06/18 08:32:27;;;;;;;4.97;2.55;;;;;;;27.97;40.15;99850.47;4129434;28;20661;-67
2022/06/18 08:34:29;;;;;;;3.60;2.42;;;;;;;28.93;39.30;99836.94;4127729;28;20718;-67
2022/06/18 08:36:33;;;;;;;4.82;2.70;;;;;;;29.15;38.80;99858.47;4127898;28;20257;-68
2022/06/18 08:38:38;;;;;;;6.30;2.15;;;;;;;28.55;40.46;99852.91;4128588;28;20230;-72
2022/06/18 08:40:45;;;;;;;3.72;2.53;;;;;;;29.03;39.60;99855.25;4119612;28;20243;-70
2022/06/18 08:42:58;;;;;;;4.93;2.47;;;;;;;29.11;39.74;99860.13;4128304;28;20233;-72
2022/06/18 08:45:03;;;;;;;3.70;2.50;;;;;;;29.29;40.07;99848.59;4127620;28;20976;-71
2022/06/18 08:47:26;;;;;;;3.40;2.65;;;;;;;29.73;39.90;99846.97;4128693;28;20261;-71
2022/06/18 08:49:54;;;;;;;3.95;2.42;;;;;;;29.73;39.51;99852.44;4125802;28;20233;-67
2022/06/18 08:52:16;;;;;;;2.92;2.15;;;;;;;29.59;38.68;99865.94;4131902;28;20287;-67
2022/06/18 08:54:25;;;;;;;6.10;2.35;;;;;;;29.36;39.11;99855.69;4128093;28;20229;-68
2022/06/18 08:56:54;;;;;;;5.70;2.70;;;;;;;29.86;38.31;99855.63;4127195;28;20689;-68
2022/06/18 08:59:14;;;;;;;11.68;2.50;;;;;;;30.07;38.63;99854.38;4130771;28;20292;-68
2022/06/18 09:01:18;;;;;;;4.97;2.60;;;;;;;30.70;38.38;99852.69;4127857;28;20222;-68
2022/06/18 09:03:37;;;;;;;4.68;2.67;;;;;;;30.40;38.63;99862.88;4126887;28;20663;-68
2022/06/18 09:05:50;;;;;;;5.45;2.22;;;;;;;30.79;37.25;99861.94;4127736;28;20336;-68
2022/06/18 09:08:04;;;;;;;3.42;2.33;;;;;;;30.68;37.48;99857.66;4124741;28;20295;-70
2022/06/18 09:10:21;;;;;;;2.50;2.30;;;;;;;30.78;38.35;99856.75;4128479;28;20229;-69
2022/06/18 09:12:44;;;;;;;3.42;2.47;;;;;;;31.08;37.86;99850.88;4128418;28;20230;-68
2022/06/18 09:14:52;;;;;;;3.53;2.65;;;;;;;30.89;38.59;99861.81;4133384;28;20269;-67
2022/06/18 09:17:05;;;;;;;2.88;2.50;;;;;;;30.62;39.05;99842.34;4128181;28;20445;-68
2022/06/18 09:19:12;;;;;;;4.40;2.30;;;;;;;30.82;38.79;99833.91;4128150;28;20237;-67
2022/06/18 09:21:19;;;;;;;4.38;2.38;;;;;;;30.80;37.95;99838.88;4135405;28;20622;-68
2022/06/18 09:23:36;;;;;;;4.60;2.60;;;;;;;31.60;36.66;99850.19;4129376;28;20308;-67
2022/06/18 09:25:43;;;;;;;3.38;2.35;;;;;;;31.92;36.42;99849.44;4125761;28;20276;-68
2022/06/18 09:28:01;;;;;;;5.50;2.60;;;;;;;32.13;36.64;99851.84;4121033;28;20233;-68
2022/06/18 09:30:09;;;;;;;3.13;2.50;;;;;;;32.03;35.92;99848.13;4128180;28;20324;-67
2022/06/18 09:32:41;;;;;;;2.17;1.98;;;;;;;32.55;35.31;99847.25;4127826;28;20288;-68
2022/06/18 09:34:51;;;;;;;3.75;2.28;;;;;;;32.32;34.88;99849.06;4118710;28;20238;-68
2022/06/18 09:36:58;;;;;;;2.85;2.17;;;;;;;32.95;33.86;99855.84;4127495;28;20292;-68
2022/06/18 09:39:19;;;;;;;2.97;2.30;;;;;;;32.56;35.04;99838.69;4128064;28;20281;-67
2022/06/18 09:41:25;;;;;;;5.20;2.25;;;;;;;32.09;36.56;99835.13;4126765;28;20226;-68
2022/06/18 09:43:37;;;;;;;3.28;2.08;;;;;;;32.32;35.13;99816.84;4125626;28;20233;-68
2022/06/18 09:45:49;;;;;;;2.20;2.00;;;;;;;32.17;36.48;99825.34;4142600;28;20271;-68
2022/06/18 09:47:52;;;;;;;7.00;2.30;;;;;;;32.14;36.58;99804.78;4144221;28;20685;-68
2022/06/18 09:49:53;;;;;;;5.55;2.15;;;;;;;31.77;36.86;99795.53;4128484;28;20377;-68
2022/06/18 09:52:06;;;;;;;4.38;2.10;;;;;;;31.19;37.21;99801.31;4132872;28;20242;-68
2022/06/18 09:54:11;;;;;;;3.85;2.22;;;;;;;32.00;36.39;99788.25;4125346;28;20241;-72
2022/06/18 09:56:38;;;;;;;5.45;2.50;;;;;;;32.34;35.81;99778.84;4126090;28;20229;-71
2022/06/18 09:58:46;;;;;;;3.83;1.95;;;;;;;32.42;35.60;99788.31;4122311;28;20285;-72